createdAt,value
2023-05-04T00:00:47.820Z,13.62
2023-05-04T00:02:16.899Z,13.59
2023-05-04T00:06:11.381Z,13.57
2023-05-04T00:07:40.386Z,13.63
2023-05-04T00:09:09.372Z,13.59
2023-05-04T00:14:30.756Z,13.32
2023-05-04T00:18:25.052Z,13.41
2023-05-04T00:19:54.105Z,13.39
2023-05-04T00:24:46.530Z,13.44
2023-05-04T00:26:15.505Z,13.45
2023-05-04T00:27:44.555Z,13.42
2023-05-04T00:30:11.528Z,13.33
2023-05-04T00:31:40.526Z,13.32
2023-05-04T00:33:38.592Z,13.30
2023-05-04T00:37:32.830Z,13.28
2023-05-04T00:42:06.914Z,13.28
2023-05-04T00:46:59.531Z,13.12
2023-05-04T00:48:57.596Z,13.14
2023-05-04T00:51:53.579Z,13.14
2023-05-04T00:59:31.626Z,13.07
2023-05-04T01:01:59.534Z,13.05
2023-05-04T01:03:57.961Z,13.07
2023-05-04T01:07:23.141Z,13.03
2023-05-04T01:12:44.720Z,13.04
2023-05-04T01:14:14.144Z,13.04
2023-05-04T01:15:42.661Z,12.97
2023-05-04T01:17:11.917Z,12.96
2023-05-04T01:22:04.342Z,12.87
2023-05-04T01:24:02.504Z,12.89
2023-05-04T01:26:00.597Z,12.87
2023-05-04T01:29:25.849Z,12.82
2023-05-04T01:34:18.587Z,12.74
2023-05-04T01:39:40.020Z,12.83
2023-05-04T01:43:34.245Z,12.86
2023-05-04T01:45:03.512Z,12.87
2023-05-04T01:52:50.254Z,12.83
2023-05-04T01:55:48.260Z,12.86
2023-05-04T01:58:44.690Z,12.85
2023-05-04T02:00:42.821Z,12.86
2023-05-04T02:03:39.206Z,12.74
2023-05-04T02:08:02.614Z,12.71
2023-05-04T02:12:25.774Z,12.70
2023-05-04T02:19:14.863Z,12.67
2023-05-04T02:21:41.917Z,12.62
2023-05-04T02:23:40.253Z,12.60
2023-05-04T02:25:09.183Z,12.72
2023-05-04T02:28:34.650Z,12.79
2023-05-04T02:32:29.215Z,12.82
2023-05-04T02:43:41.223Z,12.62
2023-05-04T02:45:39.390Z,12.67
2023-05-04T02:47:08.468Z,12.71
2023-05-04T02:51:02.575Z,12.46
2023-05-04T02:54:27.777Z,12.38
2023-05-04T02:55:27.778Z,12.41
2023-05-04T02:56:27.716Z,12.38
2023-05-04T02:57:27.751Z,12.38
2023-05-04T03:00:53.284Z,12.35
2023-05-04T03:03:20.331Z,12.34
2023-05-04T03:06:45.677Z,12.38
2023-05-04T03:08:43.742Z,12.37
2023-05-04T03:10:41.804Z,12.41
2023-05-04T03:12:10.827Z,12.42
2023-05-04T03:15:35.929Z,12.35
2023-05-04T03:17:05.064Z,12.24
2023-05-04T03:19:52.246Z,12.28
2023-05-04T03:23:46.614Z,12.27
2023-05-04T03:25:15.627Z,12.24
2023-05-04T03:29:39.419Z,12.23
2023-05-04T03:31:08.423Z,12.24
2023-05-04T03:36:59.001Z,12.16
2023-05-04T03:40:25.330Z,12.24
2023-05-04T03:45:17.656Z,12.20
2023-05-04T03:47:15.986Z,12.23
2023-05-04T03:49:43.460Z,12.23
2023-05-04T03:53:09.320Z,12.23
2023-05-04T03:55:36.790Z,12.24
2023-05-04T03:58:03.847Z,12.24
2023-05-04T04:00:30.973Z,12.23
2023-05-04T04:05:23.378Z,12.14
2023-05-04T04:06:52.358Z,12.19
2023-05-04T04:09:19.459Z,12.16
2023-05-04T04:11:17.517Z,12.10
2023-05-04T04:17:08.019Z,12.01
2023-05-04T04:20:04.351Z,12.04
2023-05-04T04:28:25.108Z,12.12
2023-05-04T04:36:11.163Z,12.09
2023-05-04T04:37:40.167Z,12.07
2023-05-04T04:39:09.214Z,12.12
2023-05-04T04:41:07.329Z,12.12
2023-05-04T04:42:36.285Z,12.13
2023-05-04T04:45:33.873Z,12.13
2023-05-04T04:53:19.870Z,12.01
2023-05-04T04:55:18.220Z,12.05
2023-05-04T05:00:39.857Z,12.14
2023-05-04T05:03:36.310Z,12.13
2023-05-04T05:12:50.970Z,12.10
2023-05-04T05:16:16.530Z,12.17
2023-05-04T05:17:45.570Z,12.20
2023-05-04T05:20:41.669Z,12.29
2023-05-04T05:23:08.668Z,12.38
2023-05-04T05:26:34.740Z,12.50
2023-05-04T05:32:25.836Z,12.65
2023-05-04T05:33:25.745Z,12.75
2023-05-04T05:34:25.841Z,12.82
2023-05-04T05:35:25.738Z,12.83
2023-05-04T05:36:54.812Z,12.89
2023-05-04T05:38:53.272Z,12.93
2023-05-04T05:41:20.029Z,12.97
2023-05-04T05:43:18.091Z,12.97
2023-05-04T05:49:38.399Z,13.10
2023-05-04T05:53:03.612Z,13.23
2023-05-04T05:55:02.605Z,13.30
2023-05-04T05:58:56.252Z,13.33
2023-05-04T06:01:24.201Z,13.48
2023-05-04T06:02:52.694Z,13.48
2023-05-04T06:11:09.360Z,13.60
2023-05-04T06:14:34.724Z,13.66
2023-05-04T06:16:03.789Z,13.69
2023-05-04T06:18:30.934Z,13.71
2023-05-04T06:20:58.330Z,13.70
2023-05-04T06:22:56.351Z,13.75
2023-05-04T06:24:25.399Z,13.84
2023-05-04T06:26:23.449Z,13.85
2023-05-04T06:29:19.620Z,13.97
2023-05-04T06:31:48.201Z,14.06
2023-05-04T06:37:08.582Z,14.24
2023-05-04T06:41:02.793Z,14.40
2023-05-04T06:43:29.912Z,14.46
2023-05-04T06:45:28.091Z,14.50
2023-05-04T06:48:53.503Z,14.52
2023-05-04T06:50:22.541Z,14.54
2023-05-04T06:52:49.800Z,14.60
2023-05-04T06:55:45.939Z,14.68
2023-05-04T06:59:40.722Z,14.70
2023-05-04T07:01:38.907Z,14.81
2023-05-04T07:03:07.828Z,14.86
2023-05-04T07:04:36.810Z,14.92
2023-05-04T07:06:06.100Z,14.96
2023-05-04T07:10:20.104Z,14.98
2023-05-04T07:13:16.342Z,15.10
2023-05-04T07:14:45.298Z,15.14
2023-05-04T07:16:14.345Z,15.19
2023-05-04T07:25:28.550Z,15.47
2023-05-04T07:27:26.708Z,15.59
2023-05-04T07:29:25.121Z,15.54
2023-05-04T07:31:23.478Z,15.59
2023-05-04T07:34:48.946Z,15.68
2023-05-04T07:37:44.988Z,15.71
2023-05-04T07:40:41.058Z,15.87
2023-05-04T07:42:39.092Z,15.94
2023-05-04T07:46:33.592Z,16.02
2023-05-04T07:48:02.545Z,16.09
2023-05-04T07:50:29.518Z,16.09
2023-05-04T07:55:21.947Z,16.07
2023-05-04T08:02:11.008Z,16.30
2023-05-04T08:04:09.077Z,16.34
2023-05-04T08:06:36.423Z,16.38
2023-05-04T08:09:03.813Z,16.46
2023-05-04T08:12:19.831Z,16.49
2023-05-04T08:17:42.231Z,16.61
2023-05-04T08:19:40.208Z,16.68
2023-05-04T08:23:05.751Z,16.79
2023-05-04T08:25:33.208Z,16.94
2023-05-04T08:28:30.345Z,17.06
2023-05-04T08:30:28.742Z,17.06
2023-05-04T08:32:55.900Z,17.16
2023-05-04T08:34:24.858Z,17.25
2023-05-04T08:37:21.228Z,17.33
2023-05-04T08:38:50.198Z,17.37
2023-05-04T08:47:22.628Z,17.62
2023-05-04T08:52:22.274Z,17.70
2023-05-04T08:54:20.360Z,17.79
2023-05-04T08:59:41.914Z,18.15
2023-05-04T09:02:09.237Z,18.29
2023-05-04T09:04:07.376Z,18.41
2023-05-04T09:06:34.386Z,18.52
2023-05-04T09:08:03.712Z,18.55
2023-05-04T09:09:32.881Z,18.58
2023-05-04T09:15:52.557Z,18.90
2023-05-04T09:18:19.645Z,18.99
2023-05-04T09:19:48.688Z,19.08
2023-05-04T09:22:15.947Z,19.19
2023-05-04T09:25:41.384Z,19.33
2023-05-04T09:28:08.511Z,19.40
2023-05-04T09:30:06.677Z,19.40
2023-05-04T09:32:04.729Z,19.54
2023-05-04T09:33:33.704Z,19.51
2023-05-04T09:35:02.958Z,19.68
2023-05-04T09:42:11.339Z,19.95
2023-05-04T09:43:40.309Z,20.03
2023-05-04T09:46:36.829Z,20.01
2023-05-04T09:49:32.861Z,20.02
2023-05-04T09:53:56.246Z,20.14
2023-05-04T10:03:01.686Z,20.59
2023-05-04T10:06:30.905Z,20.64
2023-05-04T10:10:55.023Z,20.66
2023-05-04T10:17:44.425Z,20.76
2023-05-04T10:20:40.748Z,20.87
2023-05-04T10:22:10.300Z,20.97
2023-05-04T10:23:38.861Z,21.10
2023-05-04T10:26:06.187Z,21.28
2023-05-04T10:27:35.550Z,21.29
2023-05-04T10:30:03.679Z,21.28
2023-05-04T10:32:01.096Z,21.34
2023-05-04T10:35:32.343Z,21.47
2023-05-04T10:37:59.958Z,21.49
2023-05-04T10:40:17.759Z,21.44
2023-05-04T10:41:46.879Z,21.50
2023-05-04T10:46:30.409Z,21.61
2023-05-04T10:49:27.898Z,21.56
2023-05-04T10:51:55.174Z,21.50
2023-05-04T10:54:42.306Z,21.44
2023-05-04T10:57:58.365Z,21.69
2023-05-04T10:59:27.489Z,21.77
2023-05-04T11:00:56.518Z,21.84
2023-05-04T11:04:21.917Z,21.88
2023-05-04T11:05:21.859Z,21.86
2023-05-04T11:06:24.104Z,21.92
2023-05-04T11:07:21.848Z,22.00
2023-05-04T11:09:20.166Z,22.07
2023-05-04T11:11:47.359Z,22.15
2023-05-04T11:13:45.405Z,22.15
2023-05-04T11:15:14.725Z,22.28
2023-05-04T11:18:10.658Z,22.49
2023-05-04T11:21:07.381Z,22.57
2023-05-04T11:22:57.470Z,22.42
2023-05-04T11:26:02.150Z,22.57
2023-05-04T11:28:00.226Z,22.73
2023-05-04T11:29:29.214Z,22.77
2023-05-04T11:32:16.960Z,22.75
2023-05-04T11:34:16.934Z,22.77
2023-05-04T11:36:14.944Z,22.79
2023-05-04T11:37:43.915Z,22.79
2023-05-04T11:43:07.384Z,22.67
2023-05-04T11:46:03.746Z,22.80
2023-05-04T11:48:31.296Z,22.88
2023-05-04T11:50:29.377Z,22.94
2023-05-04T11:53:25.474Z,23.12
2023-05-04T11:54:55.780Z,23.01
2023-05-04T11:56:23.552Z,23.05
2023-05-04T12:03:52.122Z,23.38
2023-05-04T12:05:41.606Z,23.53
2023-05-04T12:07:10.565Z,23.65
2023-05-04T12:11:54.722Z,23.65
2023-05-04T12:14:51.055Z,23.70
2023-05-04T12:21:11.245Z,23.87
2023-05-04T12:23:38.587Z,23.84
2023-05-04T12:26:35.116Z,23.90
2023-05-04T12:35:13.378Z,24.06
2023-05-04T12:39:09.689Z,23.97
2023-05-04T12:42:26.795Z,24.10
2023-05-04T12:45:52.832Z,24.13
2023-05-04T12:48:51.364Z,24.10
2023-05-04T12:56:18.120Z,24.32
2023-05-04T12:57:46.908Z,24.39
2023-05-04T12:59:16.703Z,24.40
2023-05-04T13:03:11.516Z,24.22
2023-05-04T13:08:37.072Z,23.94
2023-05-04T13:10:06.040Z,24.02
2023-05-04T13:12:08.745Z,24.06
2023-05-04T13:19:49.090Z,24.28
2023-05-04T13:22:35.647Z,24.45
2023-05-04T13:25:32.241Z,24.43
2023-05-04T13:29:55.706Z,24.40
2023-05-04T13:31:24.819Z,24.47
2023-05-04T13:33:29.535Z,24.27
2023-05-04T13:34:53.189Z,24.37
2023-05-04T13:36:23.097Z,24.39
2023-05-04T13:38:21.685Z,24.37
2023-05-04T13:39:50.534Z,24.39
2023-05-04T13:42:57.278Z,24.42
2023-05-04T13:44:55.807Z,24.43
2023-05-04T13:47:25.005Z,24.52
2023-05-04T13:52:50.404Z,24.93
2023-05-04T13:54:48.510Z,24.98
2023-05-04T13:56:17.513Z,24.90
2023-05-04T13:58:16.261Z,24.81
2023-05-04T13:59:54.894Z,24.67
2023-05-04T14:03:31.494Z,24.57
2023-05-04T14:07:07.557Z,24.40
2023-05-04T14:09:04.047Z,24.52
2023-05-04T14:17:01.459Z,24.64
2023-05-04T14:22:54.383Z,24.47
2023-05-04T14:28:44.352Z,24.58
2023-05-04T14:31:11.891Z,24.58
2023-05-04T14:33:10.225Z,24.53
2023-05-04T14:34:43.331Z,24.57
2023-05-04T14:37:08.758Z,24.61
2023-05-04T14:42:50.368Z,24.71
2023-05-04T14:45:46.749Z,24.67
2023-05-04T14:47:15.636Z,24.69
2023-05-04T14:53:39.179Z,24.60
2023-05-04T14:55:06.118Z,24.64
2023-05-04T14:56:35.179Z,24.62
2023-05-04T14:58:33.460Z,24.58
2023-05-04T15:00:33.566Z,24.53
2023-05-04T15:02:22.795Z,24.46
2023-05-04T15:05:09.380Z,24.52
2023-05-04T15:08:25.396Z,24.53
2023-05-04T15:15:34.599Z,24.57
2023-05-04T15:18:02.241Z,24.62
2023-05-04T15:20:19.989Z,24.69
2023-05-04T15:22:18.122Z,24.77
2023-05-04T15:24:45.525Z,24.69
2023-05-04T15:29:09.678Z,24.64
2023-05-04T15:31:08.015Z,24.73
2023-05-04T15:33:35.322Z,24.71
2023-05-04T15:37:01.030Z,24.67
2023-05-04T15:39:53.677Z,24.69
2023-05-04T15:40:53.638Z,24.65
2023-05-04T15:41:53.600Z,24.68
2023-05-04T15:42:53.654Z,24.73
2023-05-04T15:48:45.873Z,24.61
2023-05-04T15:52:41.055Z,24.53
2023-05-04T15:55:28.515Z,24.62
2023-05-04T15:56:58.666Z,24.71
2023-05-04T15:58:27.061Z,24.71
2023-05-04T15:59:56.473Z,24.76
2023-05-04T16:02:24.535Z,24.73
2023-05-04T16:04:35.487Z,24.65
2023-05-04T16:09:26.854Z,24.47
2023-05-04T16:10:26.832Z,24.49
2023-05-04T16:11:26.811Z,24.49
2023-05-04T16:13:24.931Z,24.47
2023-05-04T16:15:23.189Z,24.43
2023-05-04T16:16:52.309Z,24.43
2023-05-04T16:18:50.493Z,24.35
2023-05-04T16:20:48.591Z,24.28
2023-05-04T16:22:17.602Z,24.27
2023-05-04T16:24:44.593Z,24.28
2023-05-04T16:26:13.707Z,24.30
2023-05-04T16:27:13.714Z,24.32
2023-05-04T16:28:13.645Z,24.37
2023-05-04T16:31:12.062Z,24.30
2023-05-04T16:32:10.515Z,24.31
2023-05-04T16:33:10.554Z,24.28
2023-05-04T16:34:10.830Z,24.15
2023-05-04T16:36:08.709Z,24.15
2023-05-04T16:46:59.580Z,23.98
2023-05-04T16:47:59.608Z,24.10
2023-05-04T16:48:59.481Z,24.05
2023-05-04T16:49:59.831Z,24.12
2023-05-04T16:51:49.574Z,24.00
2023-05-04T16:58:58.552Z,23.95
2023-05-04T17:01:01.253Z,23.94
2023-05-04T17:03:57.608Z,23.95
2023-05-04T17:06:15.546Z,23.91
2023-05-04T17:12:07.999Z,24.02
2023-05-04T17:14:35.154Z,23.98
2023-05-04T17:16:04.205Z,24.08
2023-05-04T17:19:00.777Z,24.09
2023-05-04T17:20:51.098Z,24.10
2023-05-04T17:25:48.117Z,23.94
2023-05-04T17:28:45.131Z,23.95
2023-05-04T17:35:16.007Z,23.91
2023-05-04T17:39:01.271Z,23.76
2023-05-04T17:42:26.806Z,23.78
2023-05-04T17:44:25.103Z,23.83
2023-05-04T17:46:23.398Z,23.84
2023-05-04T17:49:21.306Z,23.78
2023-05-04T17:50:50.281Z,23.75
2023-05-04T17:54:15.512Z,23.70
2023-05-04T17:59:08.066Z,23.68
2023-05-04T18:01:35.747Z,23.72
2023-05-04T18:03:24.609Z,23.69
2023-05-04T18:05:22.628Z,23.66
2023-05-04T18:07:50.074Z,23.43
2023-05-04T18:12:13.408Z,23.32
2023-05-04T18:16:08.125Z,23.27
2023-05-04T18:20:02.843Z,23.25
2023-05-04T18:21:31.806Z,23.23
2023-05-04T18:23:01.225Z,23.27
2023-05-04T18:24:31.436Z,23.25
2023-05-04T18:28:44.046Z,23.12
2023-05-04T18:31:01.987Z,23.09
2023-05-04T18:32:31.154Z,23.10
2023-05-04T18:34:33.262Z,23.02
2023-05-04T18:37:20.641Z,22.97
2023-05-04T18:38:50.480Z,22.98
2023-05-04T18:45:30.292Z,22.82
2023-05-04T18:47:28.295Z,22.85
2023-05-04T18:52:40.876Z,22.77
2023-05-04T18:55:08.039Z,22.76
2023-05-04T18:56:37.099Z,22.73
2023-05-04T19:00:02.549Z,22.65
2023-05-04T19:02:58.771Z,22.55
2023-05-04T19:06:26.566Z,22.49
2023-05-04T19:09:23.809Z,22.47
2023-05-04T19:13:18.200Z,22.36
2023-05-04T19:14:47.562Z,22.31
2023-05-04T19:17:34.764Z,22.30
2023-05-04T19:20:22.007Z,22.27
2023-05-04T19:23:38.182Z,22.27
2023-05-04T19:25:07.143Z,22.27
2023-05-04T19:27:05.279Z,22.21
2023-05-04T19:31:29.058Z,22.09
2023-05-04T19:32:58.107Z,22.09
2023-05-04T19:34:26.960Z,22.10
2023-05-04T19:36:54.052Z,22.05
2023-05-04T19:39:50.967Z,21.96
2023-05-04T19:46:10.867Z,21.79
2023-05-04T19:49:26.863Z,21.75
2023-05-04T19:51:24.882Z,21.75
2023-05-04T19:54:21.170Z,21.69
2023-05-04T19:57:47.435Z,21.61
2023-05-04T19:59:16.424Z,21.59
2023-05-04T20:01:43.529Z,21.58
2023-05-04T20:05:09.021Z,21.52
2023-05-04T20:06:38.146Z,21.49
2023-05-04T20:08:36.525Z,21.46
2023-05-04T20:16:25.950Z,21.25
2023-05-04T20:18:24.468Z,21.24
2023-05-04T20:26:12.660Z,21.10
2023-05-04T20:30:37.631Z,21.03
2023-05-04T20:34:04.149Z,20.99
2023-05-04T20:38:56.715Z,20.94
2023-05-04T20:41:53.065Z,20.91
2023-05-04T20:43:22.129Z,20.91
2023-05-04T20:45:20.396Z,20.79
2023-05-04T20:50:42.399Z,20.76
2023-05-04T21:00:26.777Z,20.66
2023-05-04T21:01:26.596Z,20.69
2023-05-04T21:02:27.093Z,20.69
2023-05-04T21:05:22.886Z,20.62
2023-05-04T21:06:51.942Z,20.59
2023-05-04T21:08:20.973Z,20.58
2023-05-04T21:10:49.165Z,20.55
2023-05-04T21:13:15.593Z,20.55
2023-05-04T21:14:44.634Z,20.52
2023-05-04T21:26:44.550Z,20.28
2023-05-04T21:28:42.726Z,20.26
2023-05-04T21:31:10.432Z,20.23
2023-05-04T21:34:06.470Z,20.21
2023-05-04T21:35:35.496Z,20.23
2023-05-04T21:39:59.197Z,20.13
2023-05-04T21:41:28.200Z,20.16
2023-05-04T21:44:24.334Z,20.16
2023-05-04T21:45:53.710Z,20.17
2023-05-04T21:47:22.747Z,20.11
2023-05-04T21:48:52.231Z,20.11
2023-05-04T21:51:20.977Z,20.08
2023-05-04T21:55:43.085Z,20.02
2023-05-04T21:57:12.097Z,20.02
2023-05-04T22:00:28.079Z,19.95
2023-05-04T22:02:55.384Z,19.96
2023-05-04T22:08:45.847Z,19.86
2023-05-04T22:10:15.462Z,19.86
2023-05-04T22:11:43.806Z,19.84
2023-05-04T22:16:07.277Z,19.80
2023-05-04T22:20:31.213Z,19.74
2023-05-04T22:23:27.185Z,19.76
2023-05-04T22:24:56.493Z,19.78
2023-05-04T22:26:54.357Z,19.73
2023-05-04T22:28:23.382Z,19.74
2023-05-04T22:31:20.090Z,19.68
2023-05-04T22:35:34.565Z,19.66
2023-05-04T22:37:52.184Z,19.71
2023-05-04T22:39:50.618Z,19.71
2023-05-04T22:41:19.639Z,19.76
2023-05-04T22:42:48.693Z,19.76
2023-05-04T22:45:44.881Z,19.71
2023-05-04T22:49:10.521Z,19.71
2023-05-04T22:52:06.852Z,19.68
2023-05-04T22:55:32.377Z,19.69
2023-05-04T22:59:27.130Z,19.69
2023-05-04T23:03:50.915Z,19.68
2023-05-04T23:09:12.339Z,19.63
2023-05-04T23:15:31.878Z,19.66
2023-05-04T23:20:54.121Z,19.65
2023-05-04T23:22:52.158Z,19.69
2023-05-04T23:24:50.384Z,19.69
2023-05-04T23:26:48.483Z,19.71
2023-05-04T23:29:15.493Z,19.73
2023-05-04T23:31:42.664Z,19.74
2023-05-04T23:37:04.277Z,19.66
2023-05-04T23:38:33.525Z,19.66
2023-05-04T23:45:22.261Z,19.63
2023-05-04T23:50:44.027Z,19.58
2023-05-04T23:54:09.452Z,19.58
2023-05-04T23:55:38.492Z,19.59
2023-05-04T23:57:36.620Z,19.58
